Time;durP1;ratioP1;P1;durP2;ratioP2;P2;SDS_P1;SDS_P2;PMS_P1;PMS_P2;Temp;Humidity;BMP_temperature;BMP_pressure;BME280_temperature;BME280_humidity;BME280_pressure;Samples;Min_cycle;Max_cycle;Signal;HPM_P1;HPM_P2
2023/01/01 00:00:29;;;;;;;108.75;44.40;;;;;;;6.08;77.88;102814.48;1862070;77;21101;-50
2023/01/01 00:02:58;;;;;;;101.15;41.63;;;;;;;6.04;77.90;102814.45;1861986;77;21042;-52
2023/01/01 00:05:27;;;;;;;100.38;40.58;;;;;;;5.97;77.93;102813.47;1862135;77;21129;-53
2023/01/01 00:07:55;;;;;;;109.32;40.92;;;;;;;5.89;77.91;102813.34;1862002;77;21098;-53
2023/01/01 00:10:30;;;;;;;101.82;39.88;;;;;;;5.84;77.96;102815.01;1861883;77;21133;-52
2023/01/01 00:12:59;;;;;;;106.52;41.60;;;;;;;5.79;78.04;102814.96;1862046;77;21047;-54
2023/01/01 00:15:28;;;;;;;96.10;40.75;;;;;;;5.74;78.08;102816.63;1861859;77;21121;-53
2023/01/01 00:17:57;;;;;;;100.55;38.73;;;;;;;5.69;78.11;102818.28;1861989;77;21055;-54
2023/01/01 00:20:26;;;;;;;95.47;37.48;;;;;;;5.64;78.08;102816.03;1861940;77;21145;-55
2023/01/01 00:22:54;;;;;;;82.33;32.08;;;;;;;5.61;78.12;102819.92;1861848;77;21148;-54
2023/01/01 00:25:24;;;;;;;82.25;35.38;;;;;;;5.57;78.13;102826.84;1862053;77;21082;-55
2023/01/01 00:27:52;;;;;;;89.28;36.48;;;;;;;5.54;77.95;102824.60;1862016;77;21501;-56
2023/01/01 00:30:23;;;;;;;100.95;37.60;;;;;;;5.49;78.02;102823.65;1861940;77;21128;-54
2023/01/01 00:32:52;;;;;;;84.05;36.25;;;;;;;5.45;78.04;102820.55;1862002;77;21047;-55
2023/01/01 00:35:20;;;;;;;92.50;36.00;;;;;;;5.41;78.09;102824.41;1861877;77;21136;-54
2023/01/01 00:37:49;;;;;;;93.30;35.50;;;;;;;5.38;78.15;102820.42;1862096;77;21173;-55
2023/01/01 00:40:18;;;;;;;92.70;37.95;;;;;;;5.38;78.24;102832.18;1861983;77;21058;-54
2023/01/01 00:42:47;;;;;;;90.65;34.78;;;;;;;5.39;78.26;102824.81;1861977;77;21067;-54
2023/01/01 00:45:16;;;;;;;89.90;33.10;;;;;;;5.39;78.25;102827.42;1861929;77;21129;-55
2023/01/01 00:47:44;;;;;;;117.10;39.27;;;;;;;5.35;78.18;102824.31;1862058;77;21510;-55
2023/01/01 00:50:13;;;;;;;105.85;35.78;;;;;;;5.31;78.22;102821.20;1861941;77;21646;-55
2023/01/01 00:52:42;;;;;;;68.62;30.08;;;;;;;5.31;78.13;102817.69;1862044;77;21035;-55
2023/01/01 00:55:11;;;;;;;79.20;31.48;;;;;;;5.29;78.14;102819.41;1853215;77;21091;-55
2023/01/01 00:57:40;;;;;;;70.92;27.93;;;;;;;5.27;78.22;102819.81;1853057;77;21066;-55
2023/01/01 01:00:10;;;;;;;82.30;30.35;;;;;;;5.27;78.35;102813.28;1852999;77;21113;-54
2023/01/01 01:02:38;;;;;;;64.45;27.48;;;;;;;5.28;78.29;102818.53;1852984;77;21120;-54
2023/01/01 01:05:08;;;;;;;71.33;28.25;;;;;;;5.30;78.27;102811.60;1853190;77;21153;-53
2023/01/01 01:07:37;;;;;;;71.28;28.07;;;;;;;5.31;78.23;102806.84;1852950;77;21039;-54
2023/01/01 01:10:08;;;;;;;66.70;26.75;;;;;;;5.32;78.22;102799.44;1853073;77;21227;-54
2023/01/01 01:12:37;;;;;;;67.95;26.62;;;;;;;5.33;78.25;102801.61;1852919;77;21044;-55
2023/01/01 01:15:07;;;;;;;61.25;26.55;;;;;;;5.31;78.22;102801.62;1852898;77;21083;-55
2023/01/01 01:17:36;;;;;;;66.47;25.43;;;;;;;5.31;78.14;102802.92;1850971;77;21072;-54
2023/01/01 01:20:05;;;;;;;64.27;26.07;;;;;;;5.32;77.97;102803.36;1855583;76;21129;-60
2023/01/01 01:22:34;;;;;;;72.65;25.80;;;;;;;5.32;78.14;102798.56;1851573;77;21027;-60
2023/01/01 01:25:04;;;;;;;52.78;23.25;;;;;;;5.28;78.14;102800.25;1852423;77;21137;-59
2023/01/01 01:27:33;;;;;;;70.97;24.40;;;;;;;5.24;77.99;102798.45;1856027;76;21101;-61
2023/01/01 01:30:01;;;;;;;58.28;24.30;;;;;;;5.18;77.80;102795.72;1839413;76;21132;-54
2023/01/01 01:32:30;;;;;;;58.95;24.55;;;;;;;5.12;77.91;102793.02;1845164;77;21043;-58
2023/01/01 01:34:59;;;;;;;59.93;22.95;;;;;;;5.05;78.02;102787.23;1831998;77;21556;-59
2023/01/01 01:37:28;;;;;;;62.45;21.35;;;;;;;5.01;77.95;102791.53;1847680;77;21015;-58
2023/01/01 01:39:57;;;;;;;62.95;23.87;;;;;;;4.97;77.85;102792.34;1852881;77;21506;-59
2023/01/01 01:42:26;;;;;;;62.03;24.43;;;;;;;4.91;77.85;102789.20;1852894;77;21252;-58
2023/01/01 01:45:00;;;;;;;59.38;23.87;;;;;;;4.87;78.00;102792.61;1852939;77;21035;-58
2023/01/01 01:47:52;;;;;;;64.25;24.43;;;;;;;4.83;78.06;102788.17;1838245;77;21600;-58
2023/01/01 01:50:32;;;;;;;48.05;21.62;;;;;;;4.77;78.17;102792.85;1822412;79;21482;-59
2023/01/01 01:53:17;;;;;;;52.48;22.48;;;;;;;4.75;78.22;102793.69;1822550;78;21027;-57
2023/01/01 01:55:49;;;;;;;52.53;23.52;;;;;;;4.72;78.24;102796.23;1841412;77;21122;-58
2023/01/01 01:58:18;;;;;;;61.80;22.50;;;;;;;4.68;78.28;102790.52;1860698;77;21059;-56
2023/01/01 02:00:47;;;;;;;61.80;24.95;;;;;;;4.66;78.32;102794.83;1860440;77;21187;-58
2023/01/01 02:03:19;;;;;;;61.73;23.77;;;;;;;4.64;78.44;102800.88;1833770;77;21074;-59
2023/01/01 02:05:50;;;;;;;56.33;23.15;;;;;;;4.61;78.34;102812.99;1830903;78;21034;-58
2023/01/01 02:08:20;;;;;;;54.77;22.67;;;;;;;4.57;78.35;102806.83;1831154;78;21125;-58
2023/01/01 02:10:49;;;;;;;66.62;27.55;;;;;;;4.56;78.17;102810.75;1831254;78;21054;-58
2023/01/01 02:13:18;;;;;;;54.65;23.05;;;;;;;4.54;78.04;102810.71;1831041;78;21590;-60
2023/01/01 02:16:14;;;;;;;67.53;24.25;;;;;;;4.52;78.10;102805.89;1831286;78;21799;-59
2023/01/01 02:19:01;;;;;;;60.00;23.42;;;;;;;4.53;78.08;102805.02;1831338;78;21517;-59
2023/01/01 02:22:00;;;;;;;63.80;23.75;;;;;;;4.59;78.03;102805.16;1830425;77;21579;-59
2023/01/01 02:24:58;;;;;;;54.75;22.05;;;;;;;4.61;78.19;102809.98;1800370;78;21082;-59
2023/01/01 02:27:49;;;;;;;49.93;20.72;;;;;;;4.68;78.27;102807.04;1830034;78;21066;-59
2023/01/01 02:30:19;;;;;;;44.63;17.67;;;;;;;4.72;78.14;102810.19;1826580;78;21054;-59
2023/01/01 02:32:53;;;;;;;46.92;19.85;;;;;;;4.71;78.12;102816.24;1831242;78;21128;-59
2023/01/01 02:35:33;;;;;;;51.98;20.90;;;;;;;4.67;78.09;102815.73;1831166;78;21086;-59
2023/01/01 02:38:11;;;;;;;46.95;18.65;;;;;;;4.68;78.15;102813.56;1831136;78;21152;-60
2023/01/01 02:40:51;;;;;;;52.23;20.12;;;;;;;4.72;78.11;102818.41;1831141;78;21515;-59
2023/01/01 02:43:20;;;;;;;57.67;22.73;;;;;;;4.75;78.01;102821.97;1831169;78;21054;-59
2023/01/01 02:45:49;;;;;;;55.50;22.77;;;;;;;4.77;78.08;102830.70;1831125;78;21161;-59
2023/01/01 02:48:42;;;;;;;53.98;21.10;;;;;;;4.84;78.22;102829.97;1831274;78;21070;-59
2023/01/01 02:51:32;;;;;;;58.58;22.32;;;;;;;4.92;78.15;102830.53;1831105;78;21550;-59
2023/01/01 02:54:09;;;;;;;60.85;25.12;;;;;;;5.01;77.97;102836.78;1829523;78;21082;-59
2023/01/01 02:56:53;;;;;;;60.98;24.32;;;;;;;5.12;77.80;102844.81;1820033;78;21091;-60
2023/01/01 03:02:26;;;;;;;56.90;24.47;;;;;;;5.22;77.80;102848.05;1819602;79;21521;-60
2023/01/01 03:05:09;;;;;;;59.13;24.43;;;;;;;5.30;77.79;102853.39;1819330;79;21063;-60
2023/01/01 03:07:41;;;;;;;68.85;26.82;;;;;;;5.35;78.02;102846.52;1819104;79;21086;-60
2023/01/01 03:10:15;;;;;;;57.53;24.05;;;;;;;5.45;78.11;102842.75;1819658;79;21059;-60
2023/01/01 03:12:56;;;;;;;61.42;26.50;;;;;;;5.53;78.08;102843.33;1819864;79;21058;-60
2023/01/01 03:15:27;;;;;;;58.50;25.25;;;;;;;5.62;77.96;102849.11;1819738;79;21027;-60
2023/01/01 03:17:59;;;;;;;70.37;27.35;;;;;;;5.67;77.74;102847.45;1819902;79;21137;-60
2023/01/01 03:20:30;;;;;;;70.22;27.82;;;;;;;5.69;77.79;102848.34;1819273;78;21038;-60
2023/01/01 03:23:05;;;;;;;62.83;25.37;;;;;;;5.73;77.76;102847.53;1819682;79;21090;-60
2023/01/01 03:25:36;;;;;;;63.20;26.62;;;;;;;5.76;77.76;102838.44;1819724;79;21522;-60
2023/01/01 03:28:16;;;;;;;56.95;22.77;;;;;;;5.78;77.67;102834.11;1819472;77;21059;-60
2023/01/01 03:30:47;;;;;;;50.17;21.12;;;;;;;5.80;77.59;102827.16;1818241;79;21506;-60
2023/01/01 03:33:18;;;;;;;56.98;22.42;;;;;;;5.87;77.67;102825.52;1819729;79;21051;-59
2023/01/01 03:35:50;;;;;;;54.98;22.90;;;;;;;5.93;77.76;102824.72;1819329;79;21098;-60
2023/01/01 03:38:24;;;;;;;48.42;20.32;;;;;;;5.99;77.81;102824.83;1819613;79;21132;-60
2023/01/01 03:40:55;;;;;;;58.48;23.90;;;;;;;6.04;77.73;102827.52;1819737;79;21144;-61
2023/01/01 03:43:27;;;;;;;64.90;25.60;;;;;;;6.07;77.70;102819.69;1819606;79;21125;-60
2023/01/01 03:45:59;;;;;;;123.62;64.70;;;;;;;6.08;77.73;102822.34;1817308;79;21063;-60
2023/01/01 03:48:54;;;;;;;66.50;29.60;;;;;;;6.09;77.79;102823.23;1819762;79;21602;-59
2023/01/01 03:51:10;;;;;;;57.40;28.55;;;;;;;6.07;77.79;102825.83;1815320;79;21035;-60
2023/01/01 03:53:43;;;;;;;64.37;23.30;;;;;;;6.03;77.77;102829.27;1818467;78;21545;-61
2023/01/01 03:56:34;;;;;;;53.52;22.30;;;;;;;6.00;77.69;102843.59;1819865;78;21082;-61
2023/01/01 03:59:18;;;;;;;73.37;29.48;;;;;;;5.95;77.67;102859.61;1819784;79;21125;-61
2023/01/01 04:01:52;;;;;;;65.95;27.75;;;;;;;5.86;77.84;102873.86;1819316;79;21184;-61
2023/01/01 04:04:21;;;;;;;84.15;36.15;;;;;;;5.85;78.12;102881.27;1824611;77;21047;-59
2023/01/01 04:06:50;;;;;;;55.78;25.17;;;;;;;5.86;78.33;102881.70;1850046;77;21051;-60
2023/01/01 04:09:21;;;;;;;55.90;21.97;;;;;;;5.89;78.38;102885.69;1850009;77;21055;-59
2023/01/01 04:12:00;;;;;;;54.23;23.22;;;;;;;5.88;78.39;102878.68;1830472;77;21056;-59
2023/01/01 04:14:41;;;;;;;62.70;24.67;;;;;;;5.88;78.30;102873.45;1819568;79;21060;-59
2023/01/01 04:17:12;;;;;;;66.80;25.45;;;;;;;5.87;78.30;102874.33;1819804;79;21033;-59
2023/01/01 04:19:41;;;;;;;60.17;24.90;;;;;;;5.84;78.36;102867.73;1819698;79;21072;-58
2023/01/01 04:22:10;;;;;;;39.95;17.45;;;;;;;5.82;78.35;102865.09;1839051;77;21044;-58
2023/01/01 04:24:38;;;;;;;42.48;17.12;;;;;;;5.80;78.47;102858.53;1838605;77;21150;-58
2023/01/01 04:27:08;;;;;;;45.88;18.85;;;;;;;5.93;78.64;102857.41;1819612;79;21562;-59
2023/01/01 04:29:40;;;;;;;45.75;17.67;;;;;;;6.07;78.86;102854.59;1819823;79;21323;-58
2023/01/01 04:32:07;;;;;;;44.75;17.57;;;;;;;6.19;78.87;102852.56;1819376;79;21119;-59
2023/01/01 04:34:35;;;;;;;47.08;19.67;;;;;;;6.28;78.83;102864.89;1819688;79;21032;-59
2023/01/01 04:37:04;;;;;;;40.17;17.65;;;;;;;6.27;78.60;102864.02;1819693;79;21092;-59
2023/01/01 04:39:33;;;;;;;42.55;18.37;;;;;;;6.22;78.45;102864.39;1819725;79;21064;-59
2023/01/01 04:42:02;;;;;;;26.17;9.08;;;;;;;6.13;78.37;102865.13;1819659;79;21138;-59
2023/01/01 04:44:31;;;;;;;40.38;18.35;;;;;;;6.10;78.58;102862.46;1819672;79;21074;-59
2023/01/01 04:47:00;;;;;;;40.25;15.88;;;;;;;6.18;79.03;102856.92;1819691;79;21064;-59
2023/01/01 04:49:28;;;;;;;39.78;16.07;;;;;;;6.17;78.88;102858.20;1819716;79;21076;-59
2023/01/01 04:51:57;;;;;;;26.12;10.98;;;;;;;6.20;79.19;102851.72;1819562;79;21103;-60
2023/01/01 04:54:26;;;;;;;31.10;14.05;;;;;;;6.29;79.31;102854.86;1819601;79;21130;-61
2023/01/01 04:56:55;;;;;;;25.82;11.08;;;;;;;6.36;79.29;102851.46;1828292;78;21161;-61
2023/01/01 04:59:24;;;;;;;25.48;11.68;;;;;;;6.46;79.27;102855.96;1837021;78;21091;-60
2023/01/01 05:01:52;;;;;;;23.42;10.25;;;;;;;6.53;79.30;102851.25;1837051;78;21040;-61
2023/01/01 05:04:21;;;;;;;14.63;7.17;;;;;;;6.67;79.72;102843.97;1836934;78;21083;-61
2023/01/01 05:06:51;;;;;;;14.53;7.00;;;;;;;6.84;79.88;102850.28;1837039;78;21123;-60
2023/01/01 05:09:19;;;;;;;25.55;11.68;;;;;;;6.95;79.52;102852.98;1837050;78;21048;-60
2023/01/01 05:11:48;;;;;;;17.50;7.35;;;;;;;7.04;79.50;102853.52;1837062;78;21110;-60
2023/01/01 05:14:17;;;;;;;17.57;9.50;;;;;;;7.18;79.58;102857.14;1837051;78;21141;-59
2023/01/01 05:16:45;;;;;;;21.17;9.23;;;;;;;7.37;79.65;102854.24;1837107;78;21055;-60
2023/01/01 05:19:14;;;;;;;25.65;9.48;;;;;;;7.53;79.45;102847.39;1836892;78;21091;-61
2023/01/01 05:21:44;;;;;;;15.68;7.92;;;;;;;7.66;79.23;102857.09;1837061;78;21063;-61
2023/01/01 05:24:13;;;;;;;15.60;7.33;;;;;;;7.79;79.07;102865.05;1836994;78;21087;-61
2023/01/01 05:26:44;;;;;;;18.12;8.50;;;;;;;7.91;78.93;102866.00;1837005;78;21157;-61
2023/01/01 05:29:12;;;;;;;13.15;5.45;;;;;;;8.04;78.72;102866.95;1837181;78;21137;-60
2023/01/01 05:31:41;;;;;;;15.83;8.23;;;;;;;8.17;78.51;102867.91;1836925;78;21129;-60
2023/01/01 05:34:09;;;;;;;17.40;8.10;;;;;;;8.27;78.33;102865.74;1837132;78;21094;-60
2023/01/01 05:36:38;;;;;;;15.48;7.05;;;;;;;8.37;78.15;102867.97;1837036;78;21107;-60
2023/01/01 05:39:10;;;;;;;11.18;5.80;;;;;;;8.46;77.98;102870.66;1837060;78;21079;-60
2023/01/01 05:41:39;;;;;;;14.47;7.83;;;;;;;8.53;77.77;102858.89;1837055;78;21142;-59
2023/01/01 05:44:10;;;;;;;18.27;8.80;;;;;;;8.60;77.63;102856.73;1836941;78;21573;-59
2023/01/01 05:46:39;;;;;;;18.85;8.55;;;;;;;8.66;77.48;102843.16;1837197;78;21071;-60
2023/01/01 05:49:10;;;;;;;18.82;8.80;;;;;;;8.89;77.14;102834.02;1837080;78;21063;-60
2023/01/01 05:51:40;;;;;;;21.05;10.40;;;;;;;8.98;76.81;102828.33;1836316;78;21067;-60
2023/01/01 05:54:10;;;;;;;21.07;9.83;;;;;;;9.00;76.66;102826.58;1836969;78;21118;-60
2023/01/01 05:56:39;;;;;;;16.37;8.70;;;;;;;9.02;76.62;102824.41;1836941;78;21055;-62
2023/01/01 05:59:09;;;;;;;14.45;6.62;;;;;;;9.07;76.57;102822.66;1837030;78;21071;-60
2023/01/01 06:01:38;;;;;;;12.90;6.58;;;;;;;9.15;76.44;102818.72;1837114;78;21086;-60
2023/01/01 06:04:07;;;;;;;13.53;6.22;;;;;;;9.23;76.01;102809.06;1837073;78;21036;-60
2023/01/01 06:06:35;;;;;;;12.80;6.10;;;;;;;9.32;75.82;102804.25;1836995;78;21548;-60
2023/01/01 06:09:05;;;;;;;11.25;4.95;;;;;;;9.37;75.55;102806.86;1837032;78;21059;-61
2023/01/01 06:11:34;;;;;;;11.65;5.70;;;;;;;9.39;75.30;102801.19;1836961;78;21475;-60
2023/01/01 06:14:03;;;;;;;13.28;6.03;;;;;;;9.45;74.94;102811.69;1837022;78;21067;-60
2023/01/01 06:16:32;;;;;;;10.48;6.10;;;;;;;9.49;74.69;102804.23;1852062;77;21624;-59
2023/01/01 06:19:01;;;;;;;11.93;5.70;;;;;;;9.51;74.54;102807.73;1852050;77;21480;-60
2023/01/01 06:21:30;;;;;;;14.85;5.17;;;;;;;9.55;74.25;102801.58;1850717;77;21136;-60
2023/01/01 06:23:59;;;;;;;16.02;5.97;;;;;;;9.64;74.10;102806.81;1852343;77;21101;-61
2023/01/01 06:26:31;;;;;;;10.18;5.25;;;;;;;9.92;73.83;102809.37;1857938;77;21536;-62
2023/01/01 06:29:02;;;;;;;11.10;6.17;;;;;;;10.51;73.22;102809.16;1847004;77;21137;-61
2023/01/01 06:31:31;;;;;;;11.65;6.58;;;;;;;10.86;72.55;102810.70;1837022;77;21483;-60
2023/01/01 06:34:00;;;;;;;14.58;5.58;;;;;;;11.32;71.70;102798.45;1842800;77;21507;-60
2023/01/01 06:36:29;;;;;;;12.60;6.05;;;;;;;11.82;69.79;102793.55;1848627;77;21091;-58
2023/01/01 06:38:58;;;;;;;11.12;6.33;;;;;;;12.09;69.43;102789.73;1837096;78;21149;-59
2023/01/01 06:41:29;;;;;;;10.60;5.80;;;;;;;12.70;68.08;102782.27;1846755;75;21513;-60
2023/01/01 06:44:00;;;;;;;10.28;5.28;;;;;;;13.36;65.96;102781.66;1843810;77;21086;-61
2023/01/01 06:46:34;;;;;;;6.65;3.83;;;;;;;13.69;64.61;102772.66;1845771;77;21070;-60
2023/01/01 06:49:08;;;;;;;11.28;5.60;;;;;;;14.17;62.35;102788.44;1837254;78;21128;-61
2023/01/01 06:51:39;;;;;;;9.83;5.33;;;;;;;14.57;60.46;102792.89;1837155;78;21583;-61
2023/01/01 06:54:10;;;;;;;9.60;5.97;;;;;;;15.23;60.22;102798.34;1836822;77;21649;-61
2023/01/01 06:56:39;;;;;;;10.68;5.00;;;;;;;15.84;59.31;102801.16;1837121;78;21394;-61
2023/01/01 06:59:08;;;;;;;8.70;4.90;;;;;;;16.46;57.72;102801.55;1831562;77;21118;-61
2023/01/01 07:01:39;;;;;;;10.45;5.90;;;;;;;17.00;57.44;102813.62;1824003;77;21138;-61
2023/01/01 07:04:14;;;;;;;10.00;5.33;;;;;;;17.71;56.06;102811.58;1849398;77;21055;-59
2023/01/01 07:06:42;;;;;;;10.15;4.78;;;;;;;17.86;53.33;102804.85;1853017;77;21046;-60
2023/01/01 07:09:11;;;;;;;10.32;4.62;;;;;;;17.89;52.33;102806.52;1853035;77;21043;-60
2023/01/01 07:11:39;;;;;;;7.67;5.10;;;;;;;17.93;51.72;102792.18;1839571;77;21039;-57
2023/01/01 07:14:08;;;;;;;8.10;4.15;;;;;;;18.12;51.39;102798.53;1852741;77;21098;-53
2023/01/01 07:16:36;;;;;;;8.73;4.25;;;;;;;18.37;49.14;102795.38;1853008;77;21113;-57
2023/01/01 07:19:05;;;;;;;11.28;4.50;;;;;;;18.33;48.94;102798.19;1853028;77;21044;-54
2023/01/01 07:21:40;;;;;;;7.67;4.72;;;;;;;18.39;47.48;102803.75;1853085;77;21125;-57
2023/01/01 07:24:12;;;;;;;6.47;4.30;;;;;;;18.22;47.54;102805.73;1836021;76;21540;-55
2023/01/01 07:26:41;;;;;;;8.58;5.15;;;;;;;17.87;47.52;102815.94;1822539;78;21513;-56
2023/01/01 07:29:09;;;;;;;14.55;5.10;;;;;;;16.52;49.04;102829.27;1822543;79;21151;-56
2023/01/01 07:31:41;;;;;;;9.13;4.90;;;;;;;15.48;51.08;102821.62;1822599;79;21107;-55
2023/01/01 07:34:13;;;;;;;14.45;5.90;;;;;;;14.62;52.74;102812.66;1822589;79;21507;-56
2023/01/01 07:36:42;;;;;;;10.58;5.33;;;;;;;14.32;54.05;102820.36;1842217;77;21035;-57
2023/01/01 07:39:12;;;;;;;8.05;4.90;;;;;;;14.91;52.78;102786.77;1853219;77;21466;-61
2023/01/01 07:41:41;;;;;;;12.18;5.33;;;;;;;15.34;51.16;102768.41;1859001;76;21521;-60
2023/01/01 07:44:10;;;;;;;8.90;4.95;;;;;;;15.63;50.33;102790.19;1853010;77;21043;-61
2023/01/01 07:46:39;;;;;;;9.63;5.22;;;;;;;15.69;50.15;102794.45;1853027;77;21185;-61
2023/01/01 07:49:07;;;;;;;8.48;5.80;;;;;;;15.82;49.04;102785.29;1853106;77;21058;-63
2023/01/01 07:51:36;;;;;;;10.60;4.55;;;;;;;16.07;48.73;102776.59;1853028;77;21091;-62
2023/01/01 07:54:05;;;;;;;9.05;5.80;;;;;;;16.20;48.88;102783.27;1852583;77;21466;-59
2023/01/01 07:56:35;;;;;;;8.30;4.83;;;;;;;16.19;49.20;102760.28;1829753;77;21055;-58
2023/01/01 07:59:04;;;;;;;7.08;4.17;;;;;;;16.25;49.34;102758.33;1826436;77;21548;-58
2023/01/01 08:01:37;;;;;;;10.95;3.85;;;;;;;16.20;49.50;102760.68;1831242;78;21058;-57
2023/01/01 08:04:06;;;;;;;13.22;6.47;;;;;;;16.21;49.64;102766.42;1831273;78;21498;-58
2023/01/01 08:06:35;;;;;;;7.50;4.20;;;;;;;16.40;49.33;102759.20;1831283;78;21133;-58
2023/01/01 08:09:04;;;;;;;10.28;4.80;;;;;;;16.39;49.13;102767.61;1831393;78;21141;-58
2023/01/01 08:11:32;;;;;;;7.00;4.42;;;;;;;16.27;49.40;102764.47;1831265;78;21617;-60
2023/01/01 08:14:02;;;;;;;6.60;4.08;;;;;;;16.26;49.05;102721.55;1831256;78;21505;-59
2023/01/01 08:16:31;;;;;;;8.08;4.87;;;;;;;16.06;48.50;102740.29;1831079;78;21117;-59
2023/01/01 08:18:59;;;;;;;9.63;4.20;;;;;;;16.07;48.49;102757.98;1831347;78;21137;-58
2023/01/01 08:21:28;;;;;;;7.22;4.00;;;;;;;16.09;48.23;102732.70;1831226;78;21082;-58
2023/01/01 08:23:57;;;;;;;7.00;4.05;;;;;;;16.34;47.75;102750.07;1831357;78;21567;-58
2023/01/01 08:26:32;;;;;;;7.05;4.72;;;;;;;16.65;46.64;102725.16;1831399;78;21051;-58
2023/01/01 08:29:04;;;;;;;9.40;6.72;;;;;;;16.81;45.98;102717.55;1831119;78;21051;-58
2023/01/01 08:31:33;;;;;;;7.95;4.40;;;;;;;16.91;45.84;102750.92;1831175;78;21034;-58
2023/01/01 08:34:02;;;;;;;8.75;4.62;;;;;;;17.33;45.84;102753.02;1831309;78;21583;-58
2023/01/01 08:36:31;;;;;;;9.65;5.42;;;;;;;17.39;45.63;102770.58;1831349;78;21090;-58
2023/01/01 08:39:00;;;;;;;15.10;4.45;;;;;;;17.31;46.04;102745.56;1831220;78;21537;-58
2023/01/01 08:41:29;;;;;;;10.13;3.75;;;;;;;17.36;46.29;102744.47;1830927;78;21637;-58
2023/01/01 08:43:57;;;;;;;5.90;3.65;;;;;;;17.54;46.03;102743.41;1831184;78;21051;-58
2023/01/01 08:46:26;;;;;;;9.55;4.55;;;;;;;17.85;45.96;102747.61;1831202;78;21030;-58
2023/01/01 08:48:55;;;;;;;7.12;3.67;;;;;;;17.99;45.73;102750.62;1831308;78;21157;-58
2023/01/01 08:51:23;;;;;;;7.70;4.58;;;;;;;17.83;45.69;102733.45;1831152;78;21129;-58
2023/01/01 08:53:52;;;;;;;10.25;4.67;;;;;;;17.72;46.08;102738.73;1831107;78;21148;-59
2023/01/01 08:56:21;;;;;;;7.53;4.37;;;;;;;17.61;46.38;102758.22;1831293;78;21195;-58
2023/01/01 08:58:50;;;;;;;8.40;4.45;;;;;;;17.70;46.64;102759.20;1830937;78;21168;-58
2023/01/01 09:01:21;;;;;;;11.53;5.85;;;;;;;17.71;46.83;102760.96;1822648;79;21103;-58
2023/01/01 09:03:50;;;;;;;7.53;4.62;;;;;;;18.02;46.71;102762.95;1822482;79;21078;-58
2023/01/01 09:06:19;;;;;;;15.23;6.47;;;;;;;18.30;46.19;102722.77;1822468;79;21062;-58
2023/01/01 09:08:47;;;;;;;7.87;4.85;;;;;;;18.24;45.83;102749.22;1822473;79;21051;-58
2023/01/01 09:11:21;;;;;;;8.55;4.85;;;;;;;18.27;45.87;102721.08;1822778;78;21173;-58
2023/01/01 09:13:51;;;;;;;13.05;6.42;;;;;;;18.38;45.65;102729.98;1816749;79;21133;-58
2023/01/01 09:16:20;;;;;;;9.93;5.47;;;;;;;18.71;45.02;102760.22;1822755;79;21074;-58
2023/01/01 09:18:49;;;;;;;10.32;5.17;;;;;;;18.38;44.81;102757.98;1822391;79;21510;-59
2023/01/01 09:21:17;;;;;;;9.35;4.40;;;;;;;18.28;45.81;102748.63;1822521;79;21090;-58
2023/01/01 09:23:46;;;;;;;8.93;5.40;;;;;;;18.08;45.75;102750.27;1822774;79;21031;-58
2023/01/01 09:26:15;;;;;;;13.58;7.08;;;;;;;18.04;45.88;102748.66;1822591;79;21058;-58
2023/01/01 09:28:43;;;;;;;10.63;4.12;;;;;;;17.84;45.91;102739.20;1822642;79;21054;-58
2023/01/01 09:31:12;;;;;;;7.72;5.28;;;;;;;18.00;46.18;102756.81;1822493;79;21168;-58
2023/01/01 09:33:41;;;;;;;10.28;5.58;;;;;;;18.33;45.77;102760.85;1822426;79;21540;-58
2023/01/01 09:36:14;;;;;;;10.23;6.10;;;;;;;18.22;45.57;102751.52;1822519;79;21050;-58
2023/01/01 09:38:45;;;;;;;8.75;4.22;;;;;;;18.06;45.70;102726.81;1822603;79;21063;-58
2023/01/01 09:41:22;;;;;;;11.15;6.15;;;;;;;18.03;45.61;102705.59;1822568;78;21066;-58
2023/01/01 09:44:08;;;;;;;7.53;4.87;;;;;;;17.78;46.24;102726.09;1821936;79;21256;-59
2023/01/01 09:46:37;;;;;;;8.73;5.00;;;;;;;17.48;46.91;102747.61;1822045;79;21145;-58
2023/01/01 09:49:09;;;;;;;11.10;5.97;;;;;;;17.22;47.62;102761.39;1822522;79;21055;-58
2023/01/01 09:51:40;;;;;;;9.55;5.60;;;;;;;16.98;47.92;102728.03;1821843;79;21090;-58
2023/01/01 09:54:32;;;;;;;8.35;5.75;;;;;;;16.86;47.83;102720.49;1822429;79;21140;-58
2023/01/01 09:59:51;;;;;;;10.88;6.12;;;;;;;16.62;48.08;102745.20;1891593;76;21058;-59
2023/01/01 10:02:32;;;;;;;7.12;3.87;;;;;;;16.62;47.93;102747.86;1891701;76;21489;-59
2023/01/01 10:05:20;;;;;;;6.78;4.62;;;;;;;16.69;47.91;102759.60;1891773;76;21074;-58
2023/01/01 10:07:54;;;;;;;8.93;5.12;;;;;;;16.62;47.70;102726.58;1891750;76;21096;-58
2023/01/01 10:10:28;;;;;;;8.95;4.15;;;;;;;16.50;47.65;102737.17;1891536;76;21108;-58
2023/01/01 10:13:00;;;;;;;12.93;5.22;;;;;;;16.13;48.54;102756.93;1891621;76;21481;-58
2023/01/01 10:15:31;;;;;;;10.00;5.22;;;;;;;15.96;49.11;102766.74;1891500;76;21038;-58
2023/01/01 10:18:02;;;;;;;8.10;5.08;;;;;;;16.04;49.27;102755.41;1891838;75;21116;-59
2023/01/01 10:20:37;;;;;;;9.53;5.42;;;;;;;15.96;49.59;102757.44;1891609;76;21128;-58
2023/01/01 10:23:11;;;;;;;9.03;4.90;;;;;;;15.74;50.38;102773.13;1891649;76;21171;-58
2023/01/01 10:25:42;;;;;;;10.45;5.85;;;;;;;15.79;50.51;102764.11;1891748;74;21116;-59
2023/01/01 10:28:35;;;;;;;7.10;3.85;;;;;;;15.33;51.58;102768.02;1891611;76;21486;-58
2023/01/01 10:31:19;;;;;;;10.18;6.37;;;;;;;15.37;51.89;102729.85;1891785;76;21485;-58
2023/01/01 10:33:48;;;;;;;9.13;6.25;;;;;;;15.36;52.12;102752.45;1884902;76;21042;-58
2023/01/01 10:36:19;;;;;;;10.43;5.35;;;;;;;15.16;52.21;102764.92;1891581;76;21120;-58
2023/01/01 10:38:50;;;;;;;10.78;6.97;;;;;;;14.90;52.38;102762.47;1891691;76;21082;-58
2023/01/01 10:41:19;;;;;;;11.20;5.55;;;;;;;14.89;52.36;102739.99;1891652;76;21071;-58
2023/01/01 10:43:49;;;;;;;8.90;5.62;;;;;;;14.92;52.20;102751.39;1891587;76;21144;-58
2023/01/01 10:46:21;;;;;;;12.60;6.12;;;;;;;15.21;51.69;102748.42;1891486;76;21156;-60
2023/01/01 10:49:04;;;;;;;11.88;7.08;;;;;;;15.32;51.37;102729.10;1891572;76;21057;-58
2023/01/01 10:51:35;;;;;;;9.65;5.33;;;;;;;15.43;51.27;102738.96;1885014;75;21046;-58
2023/01/01 10:54:04;;;;;;;6.22;3.70;;;;;;;15.77;50.63;102744.70;1891666;76;21120;-58
2023/01/01 10:56:42;;;;;;;10.95;7.10;;;;;;;15.76;50.31;102734.11;1891500;76;21046;-59
2023/01/01 10:59:36;;;;;;;11.25;6.17;;;;;;;15.90;50.10;102751.86;1891473;76;21168;-58
2023/01/01 11:02:23;;;;;;;10.03;5.55;;;;;;;15.88;50.15;102731.55;1891723;74;21058;-58
2023/01/01 11:04:54;;;;;;;12.58;5.62;;;;;;;15.88;50.25;102775.37;1891660;76;21014;-58
2023/01/01 11:07:28;;;;;;;11.20;5.80;;;;;;;15.81;50.33;102756.97;1894746;74;21042;-59
2023/01/01 11:10:02;;;;;;;10.78;5.35;;;;;;;15.86;50.22;102745.33;1891643;76;21082;-59
2023/01/01 11:12:37;;;;;;;12.40;7.28;;;;;;;15.73;50.53;102743.02;1891592;76;21043;-58
2023/01/01 11:15:06;;;;;;;14.05;6.05;;;;;;;15.55;50.83;102732.92;1891524;76;21101;-58
2023/01/01 11:17:37;;;;;;;11.08;6.10;;;;;;;15.67;50.85;102767.08;1891571;76;21192;-59
2023/01/01 11:20:07;;;;;;;11.00;6.55;;;;;;;15.44;51.39;102768.59;1891499;76;21239;-59
2023/01/01 11:22:49;;;;;;;11.53;7.62;;;;;;;14.99;52.48;102770.20;1891698;76;21089;-59
2023/01/01 11:25:28;;;;;;;12.88;6.42;;;;;;;14.81;53.04;102757.39;1891723;76;21022;-59
2023/01/01 11:28:15;;;;;;;10.90;5.28;;;;;;;14.69;53.37;102756.39;1890816;74;21050;-59
2023/01/01 11:30:58;;;;;;;10.15;5.20;;;;;;;15.13;52.57;102768.53;1883137;76;21512;-59
2023/01/01 11:33:29;;;;;;;9.50;6.15;;;;;;;15.47;51.78;102757.00;1890605;75;21112;-59
2023/01/01 11:35:58;;;;;;;8.10;4.35;;;;;;;15.43;51.47;102750.05;1891812;76;21050;-59
2023/01/01 11:38:27;;;;;;;7.25;3.72;;;;;;;15.47;51.16;102753.48;1891723;76;21066;-59
2023/01/01 11:40:58;;;;;;;10.58;6.67;;;;;;;15.36;51.09;102759.98;1891641;76;21214;-59
2023/01/01 11:43:28;;;;;;;6.83;3.72;;;;;;;15.40;50.94;102752.34;1891913;74;21508;-59
2023/01/01 11:45:58;;;;;;;9.28;5.05;;;;;;;15.43;50.95;102758.87;1891717;76;21618;-59